Oregon State Flying Club

The Oregon State Flying Club is a non-profit organization committed to providing safe and inexpensive flying to the Oregon State University and Linn-Benton Community College communities. The Club currently owns three aircraft based at the Corvallis Airport for training, travel, and recreational purposes. Founded in 1952 and incorporated in 1956 the OSFC is one of the oldest continuously active flying clubs in the United States.

News & Announcements

Monthly Board Meeting

Next Meeting: Wednesday, September 17, 6pm @ KCVO

Current METAR KCVO

Raw METAR:  KCVO 220335Z 30013KT 10SM OVC070 19/06 A2996 RMK AO1

This is a report for Corvallis Municipal Automatic Weather Observing / Reporting System, United States. The report was made 21 minutes ago, at 03:35 UTC. The wind was blowing at a speed of 15.0 miles per hour (6.7 meters per second) from west/northwest (300°). The temperature was 66 °F (19 °C), with a dew-point at 43 °F (6 °C). The atmospheric pressure was 29.96 inHg (1015 hPa). The relative humidity was 42.6%. The sky was overcast from a height of 7000 feet (2134 meter) The overall visibility was 10.0 miles (16.1 kilometers).